createdAt,value
2023-04-30T00:02:19.892Z,99372.91
2023-04-30T00:05:06.760Z,99382.38
2023-04-30T00:07:52.871Z,99379.78
2023-04-30T00:10:39.491Z,99372.91
2023-04-30T00:13:25.795Z,99353.88
2023-04-30T00:16:12.232Z,99367.63
2023-04-30T00:18:58.955Z,99363.34
2023-04-30T00:21:45.919Z,99374.56
2023-04-30T00:24:32.246Z,99375.34
2023-04-30T00:27:18.723Z,99383.97
2023-04-30T00:30:05.778Z,99395.22
2023-04-30T00:32:51.931Z,99378.78
2023-04-30T00:35:38.349Z,99388.25
2023-04-30T00:38:25.062Z,99341.56
2023-04-30T00:41:11.535Z,99395.97
2023-04-30T00:43:57.902Z,99367.47
2023-04-30T00:46:44.249Z,99402.03
2023-04-30T00:49:30.854Z,99368.38
2023-04-30T00:52:17.399Z,99403.88
2023-04-30T00:55:04.230Z,99406.47
2023-04-30T00:57:51.432Z,99357.22
2023-04-30T01:00:38.139Z,99390.97
2023-04-30T01:03:24.847Z,99401.28
2023-04-30T01:06:11.506Z,99383.19
2023-04-30T01:08:58.439Z,99375.41
2023-04-30T01:12:26.288Z,99373.69
2023-04-30T01:15:32.695Z,99375.34
2023-04-30T01:18:31.606Z,99388.28
2023-04-30T01:21:20.666Z,99390.88
2023-04-30T01:24:29.117Z,99389.19
2023-04-30T01:27:23.292Z,99387.41
2023-04-30T01:30:11.860Z,99387.38
2023-04-30T01:32:58.592Z,99387.44
2023-04-30T01:36:16.769Z,99380.53
2023-04-30T01:39:13.188Z,99381.44
2023-04-30T01:42:13.908Z,99385.75
2023-04-30T01:45:37.538Z,99357.19
2023-04-30T01:49:01.080Z,99388.34
2023-04-30T01:51:50.173Z,99365.03
2023-04-30T01:54:43.673Z,99353.81
2023-04-30T01:57:35.259Z,99366.78
2023-04-30T02:00:22.568Z,99382.19
2023-04-30T02:03:09.486Z,99372.72
2023-04-30T02:05:56.148Z,99385.69
2023-04-30T02:08:42.755Z,99346.84
2023-04-30T02:11:29.898Z,99348.59
2023-04-30T02:14:16.597Z,99370.16
2023-04-30T02:17:03.734Z,99363.22
2023-04-30T02:19:50.629Z,99374.47
2023-04-30T02:22:37.432Z,99373.59
2023-04-30T02:25:23.895Z,99313.91
2023-04-30T02:28:10.238Z,99375.31
2023-04-30T02:30:56.739Z,99361.47
2023-04-30T02:33:43.135Z,99381.38
2023-04-30T02:36:29.805Z,99378.84
2023-04-30T02:39:16.403Z,99362.34
2023-04-30T02:42:03.186Z,99348.50
2023-04-30T02:44:49.544Z,99367.50
2023-04-30T02:47:36.533Z,99335.50
2023-04-30T02:50:23.132Z,99378.75
2023-04-30T02:53:09.366Z,99273.31
2023-04-30T02:55:55.834Z,99373.53
2023-04-30T02:58:42.477Z,99369.19
2023-04-30T03:01:28.999Z,99345.88
2023-04-30T03:04:15.361Z,99372.66
2023-04-30T03:07:01.909Z,99362.28
2023-04-30T03:09:48.470Z,99351.09
2023-04-30T03:12:34.872Z,99356.19
2023-04-30T03:15:21.508Z,99357.97
2023-04-30T03:18:08.258Z,99366.53
2023-04-30T03:20:55.208Z,99337.13
2023-04-30T03:23:41.808Z,99347.53
2023-04-30T03:26:28.169Z,99369.09
2023-04-30T03:29:14.525Z,99335.47
2023-04-30T03:32:01.080Z,99351.03
2023-04-30T03:34:47.668Z,99361.38
2023-04-30T03:37:34.066Z,99300.06
2023-04-30T03:40:20.310Z,99349.28
2023-04-30T03:43:06.602Z,99354.50
2023-04-30T03:45:53.593Z,99345.78
2023-04-30T03:48:40.316Z,99357.91
2023-04-30T03:51:28.378Z,99364.84
2023-04-30T03:54:14.887Z,99338.00
2023-04-30T03:57:04.344Z,99358.72
2023-04-30T03:59:51.191Z,99331.13
2023-04-30T04:02:37.842Z,99363.09
2023-04-30T04:05:24.250Z,99351.00
2023-04-30T04:08:10.804Z,99343.19
2023-04-30T04:10:57.446Z,99366.50
2023-04-30T04:13:43.704Z,99325.81
2023-04-30T04:16:30.553Z,99358.59
2023-04-30T04:19:17.003Z,99373.31
2023-04-30T04:22:04.934Z,99373.31
2023-04-30T04:24:51.545Z,99380.19
2023-04-30T04:27:41.130Z,99398.28
2023-04-30T04:30:27.868Z,99388.75
2023-04-30T04:33:16.220Z,99396.63
2023-04-30T04:36:04.220Z,99380.94
2023-04-30T04:38:50.689Z,99323.00
2023-04-30T04:41:37.127Z,99401.75
2023-04-30T04:44:23.642Z,99399.16
2023-04-30T04:47:10.290Z,99381.91
2023-04-30T04:49:56.624Z,99407.81
2023-04-30T04:52:43.280Z,99376.72
2023-04-30T04:55:29.843Z,99413.09
2023-04-30T04:58:16.940Z,99394.19
2023-04-30T05:01:05.949Z,99405.47
2023-04-30T05:03:53.770Z,99386.50
2023-04-30T05:06:40.931Z,99402.03
2023-04-30T05:09:27.499Z,99395.13
2023-04-30T05:12:15.280Z,99399.56
2023-04-30T05:15:01.817Z,99409.06
2023-04-30T05:17:48.425Z,99401.34
2023-04-30T05:20:34.677Z,99389.22
2023-04-30T05:23:21.040Z,99402.25
2023-04-30T05:26:08.736Z,99385.78
2023-04-30T05:28:55.207Z,99353.84
2023-04-30T05:31:41.999Z,99384.09
2023-04-30T05:34:28.331Z,99410.91
2023-04-30T05:37:17.693Z,99388.44
2023-04-30T05:40:06.285Z,99386.75
2023-04-30T05:42:52.761Z,99374.66
2023-04-30T05:45:39.158Z,99398.84
2023-04-30T05:48:26.509Z,99402.34
2023-04-30T05:51:13.532Z,99405.81
2023-04-30T05:54:00.380Z,99382.50
2023-04-30T05:56:46.921Z,99383.34
2023-04-30T05:59:33.218Z,99404.94
2023-04-30T06:02:19.527Z,99391.97
2023-04-30T06:05:08.053Z,99397.97
2023-04-30T06:07:54.585Z,99396.28
2023-04-30T06:10:41.097Z,99393.69
2023-04-30T06:13:27.877Z,99413.56
2023-04-30T06:16:15.436Z,99402.31
2023-04-30T06:19:02.221Z,99396.25
2023-04-30T06:21:48.454Z,99398.84
2023-04-30T06:24:36.555Z,99408.34
2023-04-30T06:27:23.457Z,99391.00
2023-04-30T06:30:09.994Z,99333.94
2023-04-30T06:32:56.797Z,99276.88
2023-04-30T06:35:43.338Z,99398.53
2023-04-30T06:38:29.534Z,99382.25
2023-04-30T06:41:16.549Z,99406.34
2023-04-30T06:44:03.070Z,99413.19
2023-04-30T06:46:49.573Z,99406.25
2023-04-30T06:49:35.809Z,99395.03
2023-04-30T06:52:22.384Z,99415.84
2023-04-30T06:55:09.397Z,99404.53
2023-04-30T06:57:56.081Z,99418.19
2023-04-30T07:00:42.926Z,99422.16
2023-04-30T07:03:29.361Z,99427.09
2023-04-30T07:06:16.241Z,99408.50
2023-04-30T07:09:03.482Z,99404.88
2023-04-30T07:11:51.235Z,99386.75
2023-04-30T07:14:37.701Z,99354.94
2023-04-30T07:17:26.746Z,99395.44
2023-04-30T07:20:17.158Z,99372.97
2023-04-30T07:23:03.407Z,99378.19
2023-04-30T07:25:49.664Z,99406.06
2023-04-30T07:28:36.466Z,99383.31
2023-04-30T07:31:23.115Z,99403.34
2023-04-30T07:34:09.742Z,99348.84
2023-04-30T07:36:56.302Z,99398.03
2023-04-30T07:39:42.893Z,99404.72
2023-04-30T07:42:29.227Z,99396.69
2023-04-30T07:45:19.858Z,99397.34
2023-04-30T07:48:06.582Z,99385.94
2023-04-30T07:50:53.507Z,99379.19
2023-04-30T07:53:40.071Z,99361.97
2023-04-30T07:56:26.361Z,99386.09
2023-04-30T07:59:12.959Z,99379.00
2023-04-30T08:02:00.281Z,99378.16
2023-04-30T08:04:47.281Z,99323.84
2023-04-30T08:07:33.730Z,99372.00
2023-04-30T08:10:20.060Z,99316.00
2023-04-30T08:13:06.610Z,99365.97
2023-04-30T08:15:52.764Z,99356.34
2023-04-30T08:18:44.445Z,99363.50
2023-04-30T08:21:31.448Z,99372.00
2023-04-30T08:24:17.783Z,99351.19
2023-04-30T08:27:04.739Z,99382.13
2023-04-30T08:29:50.973Z,99363.88
2023-04-30T08:32:38.013Z,99374.75
2023-04-30T08:35:27.002Z,99369.28
2023-04-30T08:38:13.614Z,99361.50
2023-04-30T08:41:08.310Z,99369.94
2023-04-30T08:44:00.014Z,99356.59
2023-04-30T08:46:46.397Z,99375.41
2023-04-30T08:49:33.320Z,99368.94
2023-04-30T08:52:19.735Z,99376.53
2023-04-30T08:55:08.599Z,99369.38
2023-04-30T08:57:54.972Z,99370.47
2023-04-30T09:00:41.805Z,99372.66
2023-04-30T09:03:28.731Z,99367.47
2023-04-30T09:06:16.540Z,99368.50
2023-04-30T09:09:13.828Z,99366.19
2023-04-30T09:12:17.788Z,99371.88
2023-04-30T09:15:06.455Z,99370.50
2023-04-30T09:18:07.638Z,99351.66
2023-04-30T09:21:05.684Z,99316.84
2023-04-30T09:23:57.488Z,99363.69
2023-04-30T09:26:44.339Z,99369.13
2023-04-30T09:29:36.787Z,99306.97
2023-04-30T09:32:23.442Z,99364.22
2023-04-30T09:35:32.711Z,99373.28
2023-04-30T09:38:32.813Z,99367.97
2023-04-30T09:41:27.544Z,99372.88
2023-04-30T09:44:37.270Z,99369.13
2023-04-30T09:47:24.223Z,99363.44
2023-04-30T09:50:13.649Z,99337.63
2023-04-30T09:53:13.338Z,99370.47
2023-04-30T09:56:03.036Z,99372.34
2023-04-30T09:58:58.530Z,99370.09
2023-04-30T10:01:44.789Z,99369.50
2023-04-30T10:04:36.639Z,99315.06
2023-04-30T10:07:26.433Z,99376.28
2023-04-30T10:10:17.016Z,99337.75
2023-04-30T10:13:07.953Z,99361.56
2023-04-30T10:16:07.669Z,99341.50
2023-04-30T10:18:57.075Z,99351.06
2023-04-30T10:21:46.382Z,99359.63
2023-04-30T10:24:34.714Z,99259.66
2023-04-30T10:27:21.357Z,99346.47
2023-04-30T10:30:10.719Z,99345.25
2023-04-30T10:33:04.439Z,99364.25
2023-04-30T10:36:02.009Z,99240.00
2023-04-30T10:38:53.282Z,99355.00
2023-04-30T10:41:40.524Z,99356.72
2023-04-30T10:44:27.479Z,99345.41
2023-04-30T10:47:16.681Z,99349.59
2023-04-30T10:50:08.889Z,99288.81
2023-04-30T10:53:07.144Z,99345.91
2023-04-30T10:56:06.503Z,99342.28
2023-04-30T10:58:53.363Z,99341.81
2023-04-30T11:02:00.687Z,99335.00
2023-04-30T11:05:07.571Z,99339.28
2023-04-30T11:07:58.766Z,99334.81
2023-04-30T11:11:00.594Z,99327.53
2023-04-30T11:13:49.207Z,99311.78
2023-04-30T11:16:35.829Z,99324.50
2023-04-30T11:19:24.725Z,99291.78
2023-04-30T11:22:11.532Z,99318.63
2023-04-30T11:25:05.576Z,99291.94
2023-04-30T11:27:52.800Z,99315.22
2023-04-30T11:30:39.651Z,99300.22
2023-04-30T11:33:28.698Z,99250.91
2023-04-30T11:36:15.337Z,99299.72
2023-04-30T11:39:05.945Z,99314.84
2023-04-30T11:41:52.444Z,99316.69
2023-04-30T11:44:38.826Z,99315.84
2023-04-30T11:47:25.451Z,99294.69
2023-04-30T11:50:21.269Z,99274.78
2023-04-30T11:53:09.982Z,99282.94
2023-04-30T11:55:56.896Z,99308.84
2023-04-30T11:58:46.299Z,99303.16
2023-04-30T12:01:32.671Z,99295.84
2023-04-30T12:04:19.496Z,99294.72
2023-04-30T12:07:08.808Z,99292.88
2023-04-30T12:09:56.689Z,99284.72
2023-04-30T12:12:44.762Z,99288.56
2023-04-30T12:15:32.988Z,99315.56
2023-04-30T12:18:19.156Z,99284.66
2023-04-30T12:21:05.652Z,99284.00
2023-04-30T12:23:53.379Z,99291.28
2023-04-30T12:26:42.035Z,99292.50
2023-04-30T12:29:29.210Z,99253.88
2023-04-30T12:32:19.155Z,99294.88
2023-04-30T12:35:06.425Z,99295.53
2023-04-30T12:38:01.843Z,99294.03
2023-04-30T12:40:51.281Z,99277.84
2023-04-30T12:43:38.000Z,99285.97
2023-04-30T12:46:28.128Z,99276.22
2023-04-30T12:49:34.640Z,99288.41
2023-04-30T12:52:25.399Z,99273.38
2023-04-30T12:55:19.548Z,99260.91
2023-04-30T12:58:11.457Z,99215.91
2023-04-30T13:00:59.144Z,99264.06
2023-04-30T13:03:45.937Z,99237.66
2023-04-30T13:06:33.367Z,99262.22
2023-04-30T13:09:19.944Z,99251.84
2023-04-30T13:12:09.516Z,99256.09
2023-04-30T13:14:57.308Z,99243.38
2023-04-30T13:17:43.981Z,99256.19
2023-04-30T13:20:30.519Z,99225.31
2023-04-30T13:23:16.854Z,99245.81
2023-04-30T13:26:03.340Z,99232.19
2023-04-30T13:28:49.624Z,99180.66
2023-04-30T13:31:36.403Z,99239.19
2023-04-30T13:34:23.167Z,99227.59
2023-04-30T13:37:09.666Z,99238.50
2023-04-30T13:39:56.528Z,99234.69
2023-04-30T13:42:43.178Z,99237.44
2023-04-30T13:45:29.809Z,99233.19
2023-04-30T13:48:16.140Z,99231.84
2023-04-30T13:51:02.426Z,99234.81
2023-04-30T13:53:49.007Z,99229.66
2023-04-30T13:56:35.493Z,99230.53
2023-04-30T13:59:21.910Z,99225.66
2023-04-30T14:02:09.024Z,99220.59
2023-04-30T14:05:05.399Z,99220.75
2023-04-30T14:07:52.722Z,99194.44
2023-04-30T14:10:39.050Z,99206.94
2023-04-30T14:13:25.687Z,99207.97
2023-04-30T14:16:12.423Z,99209.38
2023-04-30T14:18:58.669Z,99207.56
2023-04-30T14:21:45.397Z,99208.59
2023-04-30T14:24:31.644Z,99201.31
2023-04-30T14:27:17.969Z,99203.22
2023-04-30T14:30:04.987Z,99202.72
2023-04-30T14:32:51.542Z,99198.22
2023-04-30T14:35:38.258Z,99192.94
2023-04-30T14:38:24.557Z,99183.41
2023-04-30T14:41:12.339Z,99184.72
2023-04-30T14:43:58.689Z,99179.28
2023-04-30T14:46:45.223Z,99186.63
2023-04-30T14:49:32.139Z,99179.53
2023-04-30T14:52:19.816Z,99182.00
2023-04-30T14:55:06.746Z,99161.47
2023-04-30T14:57:53.552Z,99163.19
2023-04-30T15:00:39.819Z,99160.91
2023-04-30T15:03:26.169Z,99165.19
2023-04-30T15:06:13.725Z,99165.81
2023-04-30T15:09:01.172Z,99154.56
2023-04-30T15:11:48.358Z,99158.97
2023-04-30T15:14:34.652Z,99144.63
2023-04-30T15:17:21.725Z,99151.88
2023-04-30T15:20:08.668Z,99143.16
2023-04-30T15:22:55.402Z,99144.84
2023-04-30T15:25:44.057Z,99139.72
2023-04-30T15:28:32.709Z,99120.47
2023-04-30T15:31:18.906Z,99140.91
2023-04-30T15:34:05.968Z,99134.50
2023-04-30T15:36:52.093Z,99124.94
2023-04-30T15:39:38.774Z,99139.03
2023-04-30T15:42:24.950Z,99137.03
2023-04-30T15:45:11.654Z,99141.00
2023-04-30T15:47:58.097Z,99120.22
2023-04-30T15:50:44.699Z,99127.72
2023-04-30T15:53:31.428Z,99122.94
2023-04-30T15:56:19.568Z,99124.38
2023-04-30T15:59:06.311Z,99114.00
2023-04-30T16:01:53.784Z,99114.47
2023-04-30T16:04:41.393Z,99116.81
2023-04-30T16:07:28.055Z,99112.53
2023-04-30T16:10:14.727Z,99111.75
2023-04-30T16:13:01.092Z,99100.03
2023-04-30T16:15:47.558Z,99107.88
2023-04-30T16:18:34.200Z,99114.81
2023-04-30T16:21:21.416Z,99037.34
2023-04-30T16:24:09.252Z,98991.41
2023-04-30T16:26:56.223Z,99102.13
2023-04-30T16:29:42.837Z,99098.81
2023-04-30T16:32:29.844Z,99105.91
2023-04-30T16:35:16.220Z,99099.13
2023-04-30T16:38:02.581Z,99101.53
2023-04-30T16:40:49.246Z,99088.69
2023-04-30T16:43:35.676Z,99098.19
2023-04-30T16:46:22.109Z,99077.81
2023-04-30T16:49:09.029Z,99039.19
2023-04-30T16:51:55.633Z,99070.59
2023-04-30T16:54:41.909Z,99058.56
2023-04-30T16:57:28.246Z,99073.19
2023-04-30T17:00:16.698Z,99067.50
2023-04-30T17:03:04.696Z,99043.13
2023-04-30T17:05:52.675Z,99074.19
2023-04-30T17:08:40.413Z,99081.94
2023-04-30T17:11:27.010Z,99078.38
2023-04-30T17:14:13.470Z,99067.47
2023-04-30T17:17:00.052Z,99063.56
2023-04-30T17:19:46.561Z,99081.75
2023-04-30T17:22:33.186Z,99054.63
2023-04-30T17:25:19.546Z,99053.75
2023-04-30T17:28:05.828Z,99083.53
2023-04-30T17:30:52.484Z,99045.09
2023-04-30T17:33:39.939Z,99082.13
2023-04-30T17:36:30.324Z,99073.09
2023-04-30T17:39:18.572Z,99077.72
2023-04-30T17:42:05.513Z,99088.34
2023-04-30T17:44:52.950Z,99076.47
2023-04-30T17:47:39.591Z,99072.31
2023-04-30T17:50:26.345Z,99085.44
2023-04-30T17:53:12.646Z,99073.00
2023-04-30T17:56:00.565Z,99075.09
2023-04-30T17:58:47.633Z,99087.91
2023-04-30T18:01:34.437Z,99059.97
2023-04-30T18:04:20.809Z,99083.28
2023-04-30T18:07:08.229Z,99100.88
2023-04-30T18:09:54.949Z,98968.78
2023-04-30T18:12:41.919Z,99100.56
2023-04-30T18:15:29.219Z,99077.63
2023-04-30T18:18:16.306Z,99085.56
2023-04-30T18:21:03.714Z,99108.16
2023-04-30T18:23:50.609Z,99074.81
2023-04-30T18:26:37.498Z,99099.13
2023-04-30T18:29:23.755Z,99085.53
2023-04-30T18:32:10.112Z,99087.41
2023-04-30T18:34:56.856Z,99098.75
2023-04-30T18:37:43.003Z,99074.84
2023-04-30T18:40:29.689Z,99081.03
2023-04-30T18:43:16.851Z,99107.84
2023-04-30T18:46:05.286Z,99107.13
2023-04-30T18:48:51.778Z,99105.47
2023-04-30T18:51:38.187Z,99075.44
2023-04-30T18:54:24.388Z,99110.00
2023-04-30T18:57:16.186Z,99092.81
2023-04-30T19:00:02.556Z,99119.59
2023-04-30T19:02:49.299Z,99107.59
2023-04-30T19:05:36.429Z,99112.78
2023-04-30T19:08:23.123Z,99113.69
2023-04-30T19:11:09.592Z,99113.72
2023-04-30T19:13:56.277Z,99019.84
2023-04-30T19:16:42.668Z,99118.09
2023-04-30T19:19:29.602Z,99094.84
2023-04-30T19:22:16.198Z,99081.97
2023-04-30T19:25:02.665Z,99101.81
2023-04-30T19:27:48.949Z,99125.09
2023-04-30T19:30:35.680Z,99125.16
2023-04-30T19:33:22.856Z,99091.56
2023-04-30T19:36:09.674Z,99095.00
2023-04-30T19:38:56.393Z,99121.72
2023-04-30T19:41:42.976Z,99107.09
2023-04-30T19:44:29.825Z,99120.91
2023-04-30T19:47:16.341Z,99131.28
2023-04-30T19:50:02.842Z,99113.97
2023-04-30T19:52:49.073Z,99111.41
2023-04-30T19:55:35.617Z,99132.97
2023-04-30T19:58:22.044Z,99124.34
2023-04-30T20:01:10.730Z,99110.53
2023-04-30T20:03:57.316Z,99125.16
2023-04-30T20:06:44.703Z,99115.69
2023-04-30T20:09:31.526Z,99111.41
2023-04-30T20:12:17.996Z,99106.19
2023-04-30T20:15:04.842Z,99094.09
2023-04-30T20:17:52.800Z,99124.28
2023-04-30T20:20:39.229Z,99119.97
2023-04-30T20:23:25.725Z,99081.13
2023-04-30T20:26:11.986Z,99097.50
2023-04-30T20:28:58.409Z,99102.66
2023-04-30T20:31:44.928Z,99073.31
2023-04-30T20:34:32.392Z,99123.34
2023-04-30T20:37:19.046Z,99135.44
2023-04-30T20:40:07.802Z,99125.06
2023-04-30T20:42:54.824Z,99119.00
2023-04-30T20:45:44.079Z,99087.03
2023-04-30T20:48:30.894Z,99110.31
2023-04-30T20:51:17.435Z,99120.66
2023-04-30T20:54:04.392Z,99124.97
2023-04-30T20:56:51.462Z,99106.81
2023-04-30T20:59:38.340Z,99060.13
2023-04-30T21:02:24.935Z,99113.63
2023-04-30T21:05:11.686Z,99095.50
2023-04-30T21:08:01.191Z,99113.59
2023-04-30T21:10:47.993Z,99093.69
2023-04-30T21:13:34.318Z,99064.28
2023-04-30T21:16:20.785Z,99088.47
2023-04-30T21:19:07.139Z,99079.81
2023-04-30T21:21:53.365Z,99090.97
2023-04-30T21:24:39.978Z,99053.81
2023-04-30T21:27:26.280Z,99108.22
2023-04-30T21:30:15.175Z,99044.31
2023-04-30T21:33:01.394Z,99116.81
2023-04-30T21:35:47.666Z,99065.78
2023-04-30T21:38:37.818Z,99103.78
2023-04-30T21:41:28.107Z,99029.47
2023-04-30T21:44:15.035Z,99070.91
2023-04-30T21:47:02.160Z,99101.94
2023-04-30T21:49:48.372Z,99094.13
2023-04-30T21:52:34.799Z,98911.09
2023-04-30T21:55:21.156Z,99090.63
2023-04-30T21:58:07.473Z,99093.13
2023-04-30T22:00:54.787Z,99071.56
2023-04-30T22:03:44.511Z,99088.09
2023-04-30T22:06:31.277Z,99043.03
2023-04-30T22:09:18.027Z,99089.56
2023-04-30T22:12:06.750Z,99098.94
2023-04-30T22:14:54.423Z,99084.25
2023-04-30T22:17:41.647Z,99084.25
2023-04-30T22:20:28.251Z,99057.41
2023-04-30T22:23:14.591Z,99061.69
2023-04-30T22:26:01.655Z,99072.00
2023-04-30T22:28:47.873Z,99047.94
2023-04-30T22:31:34.136Z,99042.66
2023-04-30T22:34:23.188Z,99065.38
2023-04-30T22:37:12.429Z,99042.72
2023-04-30T22:39:59.222Z,99053.91
2023-04-30T22:42:46.406Z,99053.03
2023-04-30T22:45:37.052Z,99044.56
2023-04-30T22:48:23.611Z,99063.44
2023-04-30T22:51:09.938Z,99018.53
2023-04-30T22:53:56.703Z,99044.22
2023-04-30T22:56:43.274Z,99026.97
2023-04-30T22:59:29.625Z,99048.47
2023-04-30T23:02:16.099Z,99028.00
2023-04-30T23:05:03.244Z,99057.09
2023-04-30T23:07:49.649Z,99032.13
2023-04-30T23:10:35.915Z,99014.72
2023-04-30T23:13:22.930Z,99047.44
2023-04-30T23:16:10.325Z,99064.69
2023-04-30T23:18:58.218Z,99044.88
2023-04-30T23:21:44.822Z,99052.53
2023-04-30T23:24:35.190Z,99051.66
2023-04-30T23:27:21.810Z,99047.41
2023-04-30T23:30:09.521Z,99017.09
2023-04-30T23:32:55.955Z,99018.81
2023-04-30T23:35:45.915Z,99034.44
2023-04-30T23:38:32.546Z,99035.44
2023-04-30T23:41:18.860Z,99031.81
2023-04-30T23:44:05.098Z,99043.06
2023-04-30T23:46:52.140Z,98974.72
2023-04-30T23:49:38.683Z,99041.22
2023-04-30T23:52:25.109Z,99038.06
2023-04-30T23:55:11.629Z,99037.06
2023-04-30T23:57:57.974Z,99031.78
